createdAt,value
2023-01-31T00:00:23.906Z,20.8
2023-01-31T00:05:30.845Z,20.8
2023-01-31T00:10:54.253Z,20.8
2023-01-31T00:16:17.648Z,20.8
2023-01-31T00:21:40.846Z,20.8
2023-01-31T00:27:04.764Z,20.8
2023-01-31T00:32:29.149Z,20.8
2023-01-31T00:37:51.250Z,20.8
2023-01-31T00:42:58.250Z,20.7
2023-01-31T00:48:05.890Z,20.7
2023-01-31T00:53:28.972Z,20.7
2023-01-31T00:58:53.259Z,20.7
2023-01-31T01:04:16.533Z,20.7
2023-01-31T01:09:39.881Z,20.6
2023-01-31T01:15:02.207Z,20.6
2023-01-31T01:20:26.777Z,20.6
2023-01-31T01:25:51.424Z,20.6
2023-01-31T01:31:13.680Z,20.6
2023-01-31T01:36:22.409Z,20.6
2023-01-31T01:41:46.350Z,20.6
2023-01-31T01:46:54.430Z,20.6
2023-01-31T01:52:03.072Z,20.6
2023-01-31T01:57:10.706Z,20.5
2023-01-31T02:02:32.535Z,20.5
2023-01-31T02:07:55.363Z,20.5
2023-01-31T02:13:19.254Z,20.6
2023-01-31T02:18:27.096Z,20.7
2023-01-31T02:23:34.218Z,20.8
2023-01-31T02:28:56.611Z,20.9
2023-01-31T02:34:19.462Z,21.1
2023-01-31T02:44:48.953Z,21.2
2023-01-31T02:50:11.825Z,21.3
2023-01-31T02:55:35.076Z,21.4
2023-01-31T03:00:57.928Z,21.4
2023-01-31T03:06:21.842Z,21.6
2023-01-31T03:11:45.268Z,21.6
2023-01-31T03:17:08.408Z,21.6
2023-01-31T03:21:59.635Z,21.6
2023-01-31T03:27:23.841Z,21.6
2023-01-31T03:32:47.495Z,21.6
2023-01-31T03:38:09.276Z,21.6
2023-01-31T03:43:33.208Z,21.6
2023-01-31T03:48:57.161Z,21.6
2023-01-31T03:54:19.332Z,21.7
2023-01-31T03:59:42.455Z,21.7
2023-01-31T04:04:50.591Z,21.7
2023-01-31T04:10:13.783Z,21.7
2023-01-31T04:15:22.099Z,21.7
2023-01-31T04:20:44.768Z,21.8
2023-01-31T04:26:08.709Z,21.8
2023-01-31T04:31:32.359Z,21.8
2023-01-31T04:36:55.729Z,21.8
2023-01-31T04:42:18.246Z,21.8
2023-01-31T04:47:42.114Z,21.8
2023-01-31T04:53:05.223Z,21.8
2023-01-31T04:58:28.504Z,21.7
2023-01-31T05:03:51.955Z,21.8
2023-01-31T05:09:01.242Z,21.8
2023-01-31T05:14:24.766Z,21.8
2023-01-31T05:19:47.967Z,21.8
2023-01-31T05:25:13.326Z,21.8
2023-01-31T05:30:39.736Z,21.8
2023-01-31T05:36:06.033Z,21.8
2023-01-31T05:41:28.727Z,21.8
2023-01-31T05:46:51.376Z,21.8
2023-01-31T05:51:58.931Z,21.8
2023-01-31T05:57:07.262Z,21.8
2023-01-31T06:02:30.280Z,21.8
2023-01-31T06:07:39.202Z,21.8
2023-01-31T06:13:01.715Z,21.8
2023-01-31T06:18:10.530Z,21.8
2023-01-31T06:23:33.572Z,21.7
2023-01-31T06:28:56.860Z,21.8
2023-01-31T06:34:32.979Z,21.7
2023-01-31T06:39:57.797Z,21.7
2023-01-31T06:44:50.142Z,21.7
2023-01-31T06:50:14.146Z,21.7
2023-01-31T06:55:38.143Z,21.7
2023-01-31T07:01:00.663Z,21.7
2023-01-31T07:06:23.914Z,21.6
2023-01-31T07:11:47.055Z,21.6
2023-01-31T07:17:10.363Z,21.6
2023-01-31T07:22:32.878Z,21.6
2023-01-31T07:27:57.908Z,21.6
2023-01-31T07:34:18.464Z,21.6
2023-01-31T07:39:41.441Z,21.6
2023-01-31T07:45:21.859Z,21.6
2023-01-31T07:50:57.281Z,21.6
2023-01-31T07:56:20.868Z,21.6
2023-01-31T08:01:44.317Z,21.6
2023-01-31T08:07:14.700Z,21.6
2023-01-31T08:12:37.702Z,21.5
2023-01-31T08:18:00.732Z,21.5
2023-01-31T08:23:24.134Z,21.5
2023-01-31T08:28:48.451Z,21.5
2023-01-31T08:34:26.271Z,21.5
2023-01-31T08:40:03.039Z,21.5
2023-01-31T08:45:39.946Z,21.4
2023-01-31T08:51:00.767Z,21.5
2023-01-31T08:56:24.413Z,21.4
2023-01-31T09:01:59.812Z,21.4
2023-01-31T09:07:23.574Z,21.4
2023-01-31T09:12:46.909Z,21.4
2023-01-31T09:18:09.719Z,21.4
2023-01-31T09:23:18.152Z,21.4
2023-01-31T09:28:56.283Z,21.4
2023-01-31T09:34:20.531Z,21.4
2023-01-31T09:39:43.754Z,21.1
2023-01-31T09:45:06.399Z,58.9
2023-01-31T09:50:30.678Z,51.2
2023-01-31T09:55:54.943Z,45.6
2023-01-31T10:01:18.865Z,42.8
2023-01-31T10:06:42.285Z,56.6
2023-01-31T10:11:51.487Z,58.4
2023-01-31T10:16:58.973Z,53.4
2023-01-31T10:22:09.268Z,47.8
2023-01-31T10:27:19.115Z,43.4
2023-01-31T10:32:26.392Z,39.9
2023-01-31T10:37:33.772Z,37.3
2023-01-31T10:42:58.184Z,35
2023-01-31T10:48:21.750Z,33.1
2023-01-31T10:53:46.285Z,31.3
2023-01-31T10:59:08.748Z,30
2023-01-31T11:04:31.570Z,28.9
2023-01-31T11:09:39.499Z,28
2023-01-31T11:15:01.767Z,27.3
2023-01-31T11:20:24.930Z,26.6
2023-01-31T11:25:47.518Z,26
2023-01-31T11:31:10.794Z,25.4
2023-01-31T11:36:33.353Z,24.9
2023-01-31T11:41:40.362Z,24.6
2023-01-31T11:47:03.023Z,24.3
2023-01-31T11:52:29.340Z,23.9
2023-01-31T11:57:52.041Z,23.6
2023-01-31T12:03:15.875Z,23.4
2023-01-31T12:08:52.573Z,23.1
2023-01-31T12:14:25.345Z,22.9
2023-01-31T12:19:51.000Z,22.7
2023-01-31T12:25:15.585Z,22.5
2023-01-31T12:30:39.043Z,22.4
2023-01-31T12:36:17.056Z,22.3
2023-01-31T12:41:48.783Z,22.1
2023-01-31T12:47:26.900Z,22
2023-01-31T12:52:49.797Z,21.8
2023-01-31T12:58:13.271Z,21.8
2023-01-31T13:03:49.464Z,21.6
2023-01-31T13:09:24.712Z,21.5
2023-01-31T13:14:48.620Z,21.4
2023-01-31T13:19:56.014Z,21.4
2023-01-31T13:25:19.284Z,21.4
2023-01-31T13:30:42.163Z,21.3
2023-01-31T13:36:05.579Z,21.3
2023-01-31T13:41:12.850Z,21.3
2023-01-31T13:46:35.957Z,21.2
2023-01-31T13:51:59.636Z,21.2
2023-01-31T14:02:35.676Z,21.1
2023-01-31T14:07:58.266Z,21.1
2023-01-31T14:13:22.250Z,21
2023-01-31T14:18:46.196Z,20.9
2023-01-31T14:24:09.074Z,20.9
2023-01-31T14:29:33.610Z,20.9
2023-01-31T14:34:56.954Z,20.9
2023-01-31T14:40:19.749Z,20.8
2023-01-31T14:45:42.890Z,20.8
2023-01-31T14:51:10.309Z,20.8
2023-01-31T14:56:31.852Z,20.8
2023-01-31T15:01:54.987Z,20.7
2023-01-31T15:07:17.601Z,20.7
2023-01-31T15:12:49.062Z,20.7
2023-01-31T15:18:41.419Z,20.7
2023-01-31T15:24:04.518Z,20.7
2023-01-31T15:29:27.610Z,20.6
2023-01-31T15:34:50.998Z,20.6
2023-01-31T15:39:57.989Z,20.7
2023-01-31T15:45:21.063Z,20.7
2023-01-31T15:51:01.274Z,20.6
2023-01-31T15:56:27.016Z,20.6
2023-01-31T16:01:50.788Z,20.6
2023-01-31T16:07:13.504Z,20.6
2023-01-31T16:12:10.653Z,20.6
2023-01-31T16:17:33.793Z,20.6
2023-01-31T16:22:56.708Z,20.6
2023-01-31T16:28:19.723Z,20.6
2023-01-31T16:33:44.063Z,20.6
2023-01-31T16:39:05.695Z,20.6
2023-01-31T16:44:28.124Z,20.5
2023-01-31T16:49:50.897Z,20.6
2023-01-31T16:55:30.386Z,20.5
2023-01-31T17:00:53.849Z,20.5
2023-01-31T17:06:20.244Z,20.5
2023-01-31T17:11:41.992Z,20.5
2023-01-31T17:16:50.306Z,20.5
2023-01-31T17:22:18.917Z,20.4
2023-01-31T17:27:54.325Z,20.4
2023-01-31T17:33:22.534Z,20.4
2023-01-31T17:38:55.213Z,20.4
2023-01-31T17:44:30.244Z,20.4
2023-01-31T17:49:52.848Z,20.4
2023-01-31T17:55:15.972Z,20.4
2023-01-31T18:00:55.511Z,20.9
2023-01-31T18:06:48.103Z,21.3
2023-01-31T18:12:07.637Z,21.5
2023-01-31T18:17:42.751Z,21.8
2023-01-31T18:28:49.252Z,22
2023-01-31T18:34:27.149Z,22.1
2023-01-31T18:40:21.267Z,22
2023-01-31T18:45:57.360Z,21.9
2023-01-31T18:51:32.593Z,21.9
2023-01-31T18:57:08.276Z,22
2023-01-31T19:02:46.447Z,22.2
2023-01-31T19:08:03.310Z,22.4
2023-01-31T19:13:12.488Z,22.6
2023-01-31T19:18:17.881Z,22.8
2023-01-31T19:23:55.069Z,22.8
2023-01-31T19:29:14.982Z,22.9
2023-01-31T19:34:54.107Z,23
2023-01-31T19:40:29.696Z,23
2023-01-31T19:46:13.402Z,23.1
2023-01-31T19:51:53.091Z,23.1
2023-01-31T19:57:08.439Z,23.2
2023-01-31T20:02:15.372Z,23.2
2023-01-31T20:07:23.380Z,23.1
2023-01-31T20:12:30.881Z,23.1
2023-01-31T20:17:55.184Z,23.1
2023-01-31T20:23:04.461Z,23.1
2023-01-31T20:28:27.591Z,23.1
2023-01-31T20:33:50.713Z,22.9
2023-01-31T20:38:42.549Z,22.9
2023-01-31T20:43:50.385Z,22.8
2023-01-31T20:49:14.867Z,22.8
2023-01-31T20:54:22.821Z,22.7
2023-01-31T20:59:30.083Z,22.7
2023-01-31T21:04:37.810Z,22.6
2023-01-31T21:09:45.080Z,22.5
2023-01-31T21:15:08.124Z,22.4
2023-01-31T21:20:41.377Z,22.4
2023-01-31T21:25:48.338Z,22.3
2023-01-31T21:31:12.575Z,22.2
2023-01-31T21:36:35.548Z,22.2
2023-01-31T21:41:58.301Z,22.1
2023-01-31T21:47:05.562Z,22
2023-01-31T21:52:15.920Z,22
2023-01-31T21:57:38.934Z,21.9
2023-01-31T22:03:02.658Z,21.8
2023-01-31T22:08:09.818Z,21.8
2023-01-31T22:13:17.561Z,21.7
2023-01-31T22:18:42.691Z,21.7
2023-01-31T22:24:05.969Z,21.6
2023-01-31T22:29:28.843Z,21.6
2023-01-31T22:35:06.497Z,21.5
2023-01-31T22:40:29.336Z,21.4
2023-01-31T22:45:53.680Z,21.4
2023-01-31T22:51:16.935Z,21.4
2023-01-31T22:56:39.643Z,21.4
2023-01-31T23:02:02.291Z,21.3
2023-01-31T23:07:25.149Z,21.3
2023-01-31T23:12:16.641Z,21.3
2023-01-31T23:17:39.089Z,21.3
2023-01-31T23:22:46.635Z,21.2
2023-01-31T23:28:09.747Z,21.2
2023-01-31T23:43:48.458Z,21.1
2023-01-31T23:49:10.829Z,21.1
2023-01-31T23:54:35.245Z,21.1
2023-01-31T23:59:56.845Z,21
